createdAt,value
2019-03-06T00:00:17.617Z,99.90
2019-03-06T00:02:46.267Z,99.90
2019-03-06T00:05:15.009Z,99.90
2019-03-06T00:07:43.599Z,99.90
2019-03-06T00:10:29.334Z,99.90
2019-03-06T00:12:58.034Z,99.90
2019-03-06T00:15:26.653Z,99.90
2019-03-06T00:17:55.402Z,99.90
2019-03-06T00:20:24.244Z,99.90
2019-03-06T00:22:53.137Z,99.90
2019-03-06T00:25:21.693Z,99.90
2019-03-06T00:27:50.736Z,99.90
2019-03-06T00:30:20.517Z,99.90
2019-03-06T00:32:49.440Z,99.90
2019-03-06T00:35:26.023Z,99.90
2019-03-06T00:37:54.985Z,99.90
2019-03-06T00:40:25.368Z,99.90
2019-03-06T00:42:54.318Z,99.90
2019-03-06T00:45:22.881Z,99.90
2019-03-06T00:47:51.467Z,99.90
2019-03-06T00:50:20.160Z,99.90
2019-03-06T00:52:48.742Z,99.90
2019-03-06T00:55:17.499Z,99.90
2019-03-06T00:57:46.080Z,99.90
2019-03-06T01:00:21.592Z,99.90
2019-03-06T01:02:50.163Z,99.90
2019-03-06T01:05:19.157Z,99.50
2019-03-06T01:07:47.787Z,98.40
2019-03-06T01:10:16.808Z,97.40
2019-03-06T01:12:45.604Z,97.40
2019-03-06T01:15:19.135Z,98.30
2019-03-06T01:17:47.994Z,99.90
2019-03-06T01:20:16.818Z,99.90
2019-03-06T01:22:45.442Z,99.90
2019-03-06T01:25:23.245Z,99.90
2019-03-06T01:27:51.806Z,99.90
2019-03-06T01:30:22.684Z,99.90
2019-03-06T01:33:05.310Z,99.90
2019-03-06T01:35:35.529Z,99.90
2019-03-06T01:38:08.918Z,99.90
2019-03-06T01:40:55.412Z,99.90
2019-03-06T01:43:42.244Z,99.90
2019-03-06T01:46:10.789Z,99.90
2019-03-06T01:48:39.344Z,99.90
2019-03-06T01:51:07.991Z,99.90
2019-03-06T01:53:36.556Z,99.90
2019-03-06T01:56:05.220Z,99.90
2019-03-06T01:58:34.062Z,99.90
2019-03-06T02:01:03.076Z,99.90
2019-03-06T02:03:31.643Z,99.90
2019-03-06T02:06:00.492Z,99.70
2019-03-06T02:08:29.005Z,99.60
2019-03-06T02:10:57.628Z,99.70
2019-03-06T02:13:26.189Z,99.90
2019-03-06T02:15:54.772Z,99.90
2019-03-06T02:18:23.396Z,99.90
2019-03-06T02:20:51.999Z,99.90
2019-03-06T02:23:20.725Z,99.50
2019-03-06T02:25:49.300Z,99.30
2019-03-06T02:28:17.858Z,99.30
2019-03-06T02:30:46.432Z,99.40
2019-03-06T02:33:15.356Z,99.20
2019-03-06T02:35:43.942Z,99.30
2019-03-06T02:38:12.494Z,99.40
2019-03-06T02:40:41.073Z,99.30
2019-03-06T02:43:09.651Z,99.40
2019-03-06T02:45:38.364Z,99.50
2019-03-06T02:48:07.266Z,99.50
2019-03-06T02:50:35.846Z,99.50
2019-03-06T02:53:04.545Z,99.10
2019-03-06T02:55:33.180Z,98.80
2019-03-06T02:58:19.023Z,98.70
2019-03-06T03:01:04.574Z,98.50
2019-03-06T03:03:40.997Z,98.50
2019-03-06T03:06:19.968Z,98.50
2019-03-06T03:08:48.523Z,98.20
2019-03-06T03:11:17.141Z,98.40
2019-03-06T03:13:45.699Z,97.90
2019-03-06T03:16:14.394Z,97.60
2019-03-06T03:18:43.122Z,97.50
2019-03-06T03:21:11.701Z,97.20
2019-03-06T03:23:40.259Z,96.80
2019-03-06T03:26:08.836Z,96.70
2019-03-06T03:28:37.397Z,96.60
2019-03-06T03:31:06.270Z,96.60
2019-03-06T03:33:34.825Z,96.60
2019-03-06T03:36:03.596Z,96.50
2019-03-06T03:38:32.152Z,96.60
2019-03-06T03:41:01.296Z,96.40
2019-03-06T03:43:29.856Z,96.00
2019-03-06T03:45:58.434Z,95.90
2019-03-06T03:48:26.990Z,95.20
2019-03-06T03:50:55.571Z,95.30
2019-03-06T03:53:24.551Z,95.30
2019-03-06T03:55:53.180Z,95.20
2019-03-06T03:58:22.016Z,95.30
2019-03-06T04:00:53.395Z,95.30
2019-03-06T04:03:22.574Z,95.40
2019-03-06T04:05:51.223Z,95.30
2019-03-06T04:08:19.909Z,95.10
2019-03-06T04:10:48.797Z,94.90
2019-03-06T04:13:17.786Z,94.80
2019-03-06T04:15:46.653Z,94.80
2019-03-06T04:18:15.220Z,94.90
2019-03-06T04:20:46.651Z,94.80
2019-03-06T04:23:15.971Z,94.90
2019-03-06T04:25:45.372Z,94.70
2019-03-06T04:28:15.074Z,94.20
2019-03-06T04:30:45.127Z,94.20
2019-03-06T04:33:14.422Z,94.00
2019-03-06T04:35:44.102Z,93.90
2019-03-06T04:38:12.613Z,93.70
2019-03-06T04:40:41.819Z,93.50
2019-03-06T04:43:11.189Z,93.40
2019-03-06T04:45:40.034Z,93.00
2019-03-06T04:48:09.034Z,93.10
2019-03-06T04:50:37.936Z,93.60
2019-03-06T04:53:07.301Z,94.00
2019-03-06T04:55:35.840Z,93.50
2019-03-06T04:58:04.404Z,92.90
2019-03-06T05:00:33.554Z,92.70
2019-03-06T05:03:02.186Z,93.40
2019-03-06T05:05:30.978Z,93.40
2019-03-06T05:07:59.908Z,93.00
2019-03-06T05:10:28.492Z,93.40
2019-03-06T05:12:57.365Z,93.70
2019-03-06T05:15:25.923Z,93.40
2019-03-06T05:17:59.126Z,93.40
2019-03-06T05:20:27.801Z,93.10
2019-03-06T05:22:56.849Z,93.20
2019-03-06T05:25:25.334Z,92.40
2019-03-06T05:27:53.981Z,93.00
2019-03-06T05:30:24.291Z,92.60
2019-03-06T05:33:09.154Z,92.60
2019-03-06T05:36:06.531Z,93.60
2019-03-06T05:38:47.218Z,96.10
2019-03-06T05:41:15.982Z,97.70
2019-03-06T05:43:44.590Z,97.80
2019-03-06T05:46:13.134Z,97.70
2019-03-06T05:48:41.707Z,98.40
2019-03-06T05:51:10.500Z,98.90
2019-03-06T05:53:39.176Z,99.10
2019-03-06T05:56:07.760Z,98.30
2019-03-06T05:58:36.454Z,99.00
2019-03-06T06:01:05.229Z,99.20
2019-03-06T06:03:34.063Z,98.70
2019-03-06T06:06:03.401Z,99.20
2019-03-06T06:08:31.957Z,98.40
2019-03-06T06:11:00.512Z,97.60
2019-03-06T06:13:30.950Z,97.80
2019-03-06T06:15:59.704Z,96.80
2019-03-06T06:18:28.692Z,95.80
2019-03-06T06:21:04.641Z,94.50
2019-03-06T06:23:43.408Z,94.10
2019-03-06T06:26:11.967Z,91.80
2019-03-06T06:28:40.577Z,91.50
2019-03-06T06:31:09.175Z,91.30
2019-03-06T06:33:37.791Z,92.00
2019-03-06T06:36:06.378Z,91.50
2019-03-06T06:38:34.933Z,87.90
2019-03-06T06:41:03.728Z,81.90
2019-03-06T06:43:32.448Z,75.70
2019-03-06T06:46:01.328Z,73.80
2019-03-06T06:48:30.057Z,66.30
2019-03-06T06:51:33.605Z,66.50
2019-03-06T06:54:14.309Z,63.30
2019-03-06T06:56:58.339Z,61.20
2019-03-06T06:59:33.329Z,58.00
2019-03-06T07:02:26.245Z,54.30
2019-03-06T07:05:26.332Z,55.60
2019-03-06T07:08:05.504Z,57.20
2019-03-06T07:10:47.750Z,59.30
2019-03-06T07:13:18.405Z,62.80
2019-03-06T07:15:48.638Z,62.80
2019-03-06T07:18:18.944Z,65.40
2019-03-06T07:20:58.049Z,65.80
2019-03-06T07:23:30.927Z,68.20
2019-03-06T07:26:01.502Z,67.10
2019-03-06T07:28:47.873Z,64.50
2019-03-06T07:31:23.990Z,64.50
2019-03-06T07:33:54.681Z,65.40
2019-03-06T07:36:30.832Z,64.10
2019-03-06T07:38:59.421Z,60.50
2019-03-06T07:41:45.019Z,61.00
2019-03-06T07:44:18.356Z,59.10
2019-03-06T07:46:48.553Z,58.80
2019-03-06T07:49:19.147Z,56.00
2019-03-06T07:51:55.329Z,56.10
2019-03-06T07:54:31.313Z,51.60
2019-03-06T07:57:13.876Z,48.70
2019-03-06T07:59:42.810Z,44.40
2019-03-06T08:02:38.749Z,44.40
2019-03-06T08:05:09.516Z,46.00
2019-03-06T08:07:38.096Z,46.80
2019-03-06T08:10:17.889Z,47.40
2019-03-06T08:12:48.116Z,47.20
2019-03-06T08:15:18.389Z,47.90
2019-03-06T08:17:48.691Z,50.40
2019-03-06T08:20:36.797Z,51.30
2019-03-06T08:23:13.311Z,52.10
2019-03-06T08:25:49.524Z,53.50
2019-03-06T08:28:18.181Z,54.50
2019-03-06T08:30:48.525Z,55.40
2019-03-06T08:33:18.407Z,55.30
2019-03-06T08:35:47.320Z,56.00
2019-03-06T08:38:15.962Z,55.80
2019-03-06T08:40:44.788Z,57.20
2019-03-06T08:43:13.465Z,57.10
2019-03-06T08:45:52.610Z,58.10
2019-03-06T08:48:39.125Z,59.50
2019-03-06T08:51:21.162Z,59.50
2019-03-06T08:53:54.162Z,58.90
2019-03-06T08:56:27.068Z,59.50
2019-03-06T08:59:12.181Z,59.60
2019-03-06T09:02:01.256Z,57.80
2019-03-06T09:04:48.453Z,57.70
2019-03-06T09:07:30.841Z,58.10
2019-03-06T09:10:03.796Z,57.50
2019-03-06T09:12:39.807Z,56.80
2019-03-06T09:15:31.715Z,56.60
2019-03-06T09:18:18.657Z,56.10
2019-03-06T09:20:48.945Z,55.00
2019-03-06T09:23:24.946Z,55.10
2019-03-06T09:25:57.953Z,56.40
2019-03-06T09:28:43.037Z,54.50
2019-03-06T09:31:19.381Z,53.60
2019-03-06T09:33:49.587Z,54.80
2019-03-06T09:36:35.260Z,53.20
2019-03-06T09:39:09.612Z,52.70
2019-03-06T09:41:39.835Z,53.10
2019-03-06T09:44:15.946Z,53.00
2019-03-06T09:46:46.180Z,53.90
2019-03-06T09:49:16.371Z,53.00
2019-03-06T09:51:49.084Z,51.40
2019-03-06T09:54:19.653Z,52.10
2019-03-06T09:56:58.559Z,52.30
2019-03-06T09:59:34.256Z,52.40
2019-03-06T10:02:07.466Z,52.10
2019-03-06T10:04:40.801Z,52.90
2019-03-06T10:07:23.522Z,53.10
2019-03-06T10:10:08.445Z,53.50
2019-03-06T10:12:47.124Z,54.70
2019-03-06T10:15:12.717Z,54.20
2019-03-06T10:17:58.277Z,53.90
2019-03-06T10:20:27.217Z,52.60
2019-03-06T10:22:59.697Z,53.20
2019-03-06T10:25:30.105Z,53.00
2019-03-06T10:28:05.726Z,53.00
2019-03-06T10:30:27.778Z,52.90
2019-03-06T10:33:00.012Z,52.10
2019-03-06T10:35:28.737Z,52.30
2019-03-06T10:37:57.513Z,52.30
2019-03-06T10:40:26.214Z,52.40
2019-03-06T10:42:55.207Z,52.60
2019-03-06T10:45:23.905Z,53.20
2019-03-06T10:47:52.845Z,53.40
2019-03-06T10:50:26.896Z,53.70
2019-03-06T10:52:53.177Z,52.30
2019-03-06T10:55:22.426Z,52.50
2019-03-06T10:57:51.405Z,52.60
2019-03-06T11:00:30.383Z,52.20
2019-03-06T11:03:00.526Z,52.30
2019-03-06T11:05:31.088Z,52.20
2019-03-06T11:08:00.540Z,51.80
2019-03-06T11:10:32.040Z,51.30
2019-03-06T11:13:01.941Z,52.00
2019-03-06T11:15:31.062Z,51.90
2019-03-06T11:17:59.771Z,52.40
2019-03-06T11:20:34.182Z,52.60
2019-03-06T11:23:08.354Z,50.50
2019-03-06T11:25:38.485Z,51.70
2019-03-06T11:28:09.986Z,52.10
2019-03-06T11:30:47.551Z,51.00
2019-03-06T11:33:17.368Z,46.10
2019-03-06T11:35:46.891Z,46.50
2019-03-06T11:38:15.698Z,46.80
2019-03-06T11:40:44.349Z,46.60
2019-03-06T11:43:13.276Z,47.40
2019-03-06T11:45:42.707Z,48.40
2019-03-06T11:48:12.607Z,48.00
2019-03-06T11:50:41.368Z,48.00
2019-03-06T11:53:10.293Z,49.10
2019-03-06T11:55:39.544Z,49.30
2019-03-06T11:58:10.499Z,49.70
2019-03-06T12:00:48.088Z,48.00
2019-03-06T12:03:19.960Z,48.80
2019-03-06T12:05:49.301Z,48.00
2019-03-06T12:08:19.683Z,49.20
2019-03-06T12:10:48.773Z,49.20
2019-03-06T12:13:18.168Z,49.40
2019-03-06T12:15:51.656Z,49.00
2019-03-06T12:18:22.657Z,49.00
2019-03-06T12:20:51.378Z,48.90
2019-03-06T12:23:20.265Z,48.90
2019-03-06T12:25:49.080Z,48.60
2019-03-06T12:28:18.199Z,47.60
2019-03-06T12:30:47.092Z,48.00
2019-03-06T12:33:24.713Z,47.30
2019-03-06T12:35:53.378Z,46.30
2019-03-06T12:38:22.163Z,46.60
2019-03-06T12:40:50.746Z,48.00
2019-03-06T12:43:19.440Z,46.50
2019-03-06T12:46:09.394Z,45.00
2019-03-06T12:48:38.058Z,46.70
2019-03-06T12:51:06.828Z,45.60
2019-03-06T12:53:35.485Z,46.50
2019-03-06T12:56:04.733Z,45.00
2019-03-06T12:58:33.292Z,44.50
2019-03-06T13:01:01.939Z,44.40
2019-03-06T13:03:30.496Z,44.40
2019-03-06T13:05:59.080Z,43.60
2019-03-06T13:08:28.008Z,44.10
2019-03-06T13:10:58.497Z,45.10
2019-03-06T13:13:35.202Z,46.00
2019-03-06T13:15:57.603Z,44.70
2019-03-06T13:18:26.609Z,45.10
2019-03-06T13:20:55.735Z,46.20
2019-03-06T13:23:26.285Z,45.30
2019-03-06T13:25:55.135Z,45.70
2019-03-06T13:28:24.356Z,45.00
2019-03-06T13:30:53.553Z,45.70
2019-03-06T13:33:24.586Z,45.60
2019-03-06T13:35:53.525Z,45.30
2019-03-06T13:38:22.373Z,45.90
2019-03-06T13:40:51.943Z,45.10
2019-03-06T13:43:21.391Z,45.20
2019-03-06T13:45:51.532Z,45.50
2019-03-06T13:48:20.119Z,45.00
2019-03-06T13:50:49.087Z,44.10
2019-03-06T13:53:20.516Z,44.70
2019-03-06T13:55:47.916Z,44.50
2019-03-06T13:58:16.737Z,45.20
2019-03-06T14:00:45.296Z,43.50
2019-03-06T14:03:14.041Z,43.00
2019-03-06T14:05:42.600Z,43.80
2019-03-06T14:08:11.200Z,44.70
2019-03-06T14:10:39.889Z,43.90
2019-03-06T14:13:08.468Z,44.30
2019-03-06T14:15:37.097Z,44.90
2019-03-06T14:18:08.384Z,44.40
2019-03-06T14:20:36.948Z,44.90
2019-03-06T14:23:05.602Z,45.50
2019-03-06T14:25:34.597Z,45.00
2019-03-06T14:28:03.406Z,45.40
2019-03-06T14:30:35.766Z,46.00
2019-03-06T14:33:04.864Z,45.60
2019-03-06T14:35:33.567Z,46.20
2019-03-06T14:38:02.294Z,46.50
2019-03-06T14:40:32.346Z,46.80
2019-03-06T14:43:02.791Z,46.60
2019-03-06T14:45:31.527Z,46.70
2019-03-06T14:48:00.740Z,46.80
2019-03-06T14:50:29.540Z,47.40
2019-03-06T14:52:58.619Z,47.10
2019-03-06T14:55:27.280Z,47.30
2019-03-06T14:57:55.952Z,47.40
2019-03-06T15:00:24.597Z,47.20
2019-03-06T15:02:53.461Z,47.60
2019-03-06T15:05:22.160Z,47.70
2019-03-06T15:07:50.820Z,48.00
2019-03-06T15:10:20.223Z,48.00
2019-03-06T15:12:49.428Z,48.20
2019-03-06T15:15:19.486Z,48.60
2019-03-06T15:17:48.765Z,48.50
2019-03-06T15:20:19.454Z,48.10
2019-03-06T15:22:50.340Z,48.20
2019-03-06T15:25:20.957Z,48.40
2019-03-06T15:27:49.534Z,49.10
2019-03-06T15:30:19.543Z,49.40
2019-03-06T15:32:48.569Z,50.20
2019-03-06T15:35:17.565Z,49.50
2019-03-06T15:37:46.317Z,50.50
2019-03-06T15:40:33.450Z,49.70
2019-03-06T15:43:02.189Z,50.00
2019-03-06T15:45:33.956Z,50.60
2019-03-06T15:48:02.714Z,50.00
2019-03-06T15:50:31.855Z,50.20
2019-03-06T15:53:02.142Z,49.80
2019-03-06T15:55:31.390Z,49.40
2019-03-06T15:58:00.285Z,49.70
2019-03-06T16:00:34.456Z,49.10
2019-03-06T16:03:05.180Z,49.00
2019-03-06T16:05:34.783Z,49.90
2019-03-06T16:08:03.611Z,49.40
2019-03-06T16:10:32.314Z,48.90
2019-03-06T16:13:01.002Z,48.70
2019-03-06T16:15:30.305Z,49.40
2019-03-06T16:18:04.581Z,48.10
2019-03-06T16:20:33.279Z,49.70
2019-03-06T16:23:01.989Z,49.60
2019-03-06T16:25:36.834Z,49.80
2019-03-06T16:28:00.985Z,50.40
2019-03-06T16:30:30.597Z,50.30
2019-03-06T16:32:59.301Z,50.20
2019-03-06T16:35:28.388Z,48.30
2019-03-06T16:37:57.274Z,50.20
2019-03-06T16:40:26.704Z,49.30
2019-03-06T16:42:55.370Z,49.50
2019-03-06T16:45:25.583Z,49.30
2019-03-06T16:47:54.440Z,49.70
2019-03-06T16:50:23.783Z,49.60
2019-03-06T16:52:53.053Z,49.70
2019-03-06T16:55:23.130Z,48.30
2019-03-06T16:57:51.895Z,47.90
2019-03-06T17:00:34.895Z,47.60
2019-03-06T17:03:05.141Z,46.50
2019-03-06T17:05:33.996Z,47.50
2019-03-06T17:08:03.589Z,48.60
2019-03-06T17:13:11.027Z,50.50
2019-03-06T17:15:39.856Z,52.50
2019-03-06T17:18:08.555Z,52.60
2019-03-06T17:20:37.700Z,53.20
2019-03-06T17:23:06.712Z,53.20
2019-03-06T17:25:35.833Z,53.60
2019-03-06T17:28:05.137Z,53.60
2019-03-06T17:30:35.869Z,54.00
2019-03-06T17:33:09.911Z,55.10
2019-03-06T17:35:39.290Z,55.30
2019-03-06T17:38:10.756Z,55.90
2019-03-06T17:40:39.814Z,56.30
2019-03-06T17:43:08.952Z,57.00
2019-03-06T17:45:38.890Z,57.40
2019-03-06T17:48:09.267Z,57.50
2019-03-06T17:50:38.032Z,57.90
2019-03-06T17:53:07.077Z,58.50
2019-03-06T17:55:35.943Z,58.50
2019-03-06T17:58:05.369Z,59.00
2019-03-06T18:00:36.700Z,59.20
2019-03-06T18:03:06.408Z,59.40
2019-03-06T18:05:35.178Z,59.90
2019-03-06T18:08:03.920Z,59.60
2019-03-06T18:10:32.582Z,59.20
2019-03-06T18:13:01.163Z,59.00
2019-03-06T18:15:29.913Z,58.80
2019-03-06T18:17:58.599Z,58.60
2019-03-06T18:20:27.437Z,58.90
2019-03-06T18:22:56.069Z,58.80
2019-03-06T18:25:28.097Z,59.20
2019-03-06T18:27:57.147Z,59.30
2019-03-06T18:30:27.030Z,59.80
2019-03-06T18:32:55.766Z,60.20
2019-03-06T18:35:24.457Z,61.20
2019-03-06T18:37:53.580Z,61.90
2019-03-06T18:40:23.750Z,62.80
2019-03-06T18:42:54.761Z,63.90
2019-03-06T18:45:24.150Z,66.50
2019-03-06T18:47:54.116Z,65.30
2019-03-06T18:50:27.288Z,65.20
2019-03-06T18:52:56.729Z,65.60
2019-03-06T18:55:25.623Z,63.30
2019-03-06T18:57:54.628Z,63.30
2019-03-06T19:00:25.287Z,62.80
2019-03-06T19:02:55.124Z,62.30
2019-03-06T19:05:24.726Z,62.10
2019-03-06T19:07:53.792Z,62.20
2019-03-06T19:10:23.572Z,60.40
2019-03-06T19:12:52.715Z,60.40
2019-03-06T19:15:26.531Z,59.20
2019-03-06T19:17:55.241Z,58.10
2019-03-06T19:20:24.050Z,57.80
2019-03-06T19:22:53.653Z,58.20
2019-03-06T19:25:22.824Z,57.50
2019-03-06T19:27:51.719Z,57.10
2019-03-06T19:30:24.387Z,57.70
2019-03-06T19:32:54.837Z,56.40
2019-03-06T19:35:28.967Z,55.00
2019-03-06T19:37:59.032Z,55.80
2019-03-06T19:40:27.933Z,55.50
2019-03-06T19:42:57.247Z,55.70
2019-03-06T19:45:26.607Z,54.00
2019-03-06T19:47:56.373Z,55.20
2019-03-06T19:50:26.380Z,55.40
2019-03-06T19:52:55.699Z,55.40
2019-03-06T19:55:25.547Z,55.10
2019-03-06T19:58:06.278Z,55.40
2019-03-06T20:00:35.252Z,55.80
2019-03-06T20:03:05.756Z,55.10
2019-03-06T20:05:36.364Z,55.10
2019-03-06T20:08:08.345Z,55.20
2019-03-06T20:10:37.586Z,55.80
2019-03-06T20:13:06.949Z,53.30
2019-03-06T20:15:35.936Z,55.60
2019-03-06T20:18:04.952Z,55.20
2019-03-06T20:20:33.791Z,55.30
2019-03-06T20:23:02.953Z,55.00
2019-03-06T20:25:31.614Z,55.00
2019-03-06T20:28:00.332Z,54.80
2019-03-06T20:30:29.128Z,53.70
2019-03-06T20:32:57.820Z,54.40
2019-03-06T20:35:27.100Z,54.60
2019-03-06T20:37:56.524Z,53.60
2019-03-06T20:40:25.435Z,52.70
2019-03-06T20:42:54.000Z,52.90
2019-03-06T20:45:22.779Z,52.50
2019-03-06T20:47:51.428Z,52.20
2019-03-06T20:50:20.648Z,52.00
2019-03-06T20:52:50.329Z,51.40
2019-03-06T20:55:19.450Z,53.00
2019-03-06T20:57:48.264Z,53.00
2019-03-06T21:00:22.690Z,52.50
2019-03-06T21:02:51.508Z,52.80
2019-03-06T21:05:20.338Z,53.50
2019-03-06T21:07:49.122Z,53.20
2019-03-06T21:10:18.858Z,53.30
2019-03-06T21:12:47.485Z,52.90
2019-03-06T21:15:20.448Z,52.60
2019-03-06T21:17:49.003Z,51.60
2019-03-06T21:20:19.232Z,50.80
2019-03-06T21:22:47.971Z,50.40
2019-03-06T21:25:18.861Z,50.50
2019-03-06T21:27:47.491Z,49.40
2019-03-06T21:30:19.752Z,49.70
2019-03-06T21:32:48.313Z,48.80
2019-03-06T21:35:16.994Z,48.60
2019-03-06T21:37:45.536Z,48.60
2019-03-06T21:40:14.452Z,48.80
2019-03-06T21:42:43.012Z,48.20
2019-03-06T21:45:12.900Z,47.40
2019-03-06T21:47:41.527Z,47.30
2019-03-06T21:50:12.648Z,47.10
2019-03-06T21:52:41.230Z,47.50
2019-03-06T21:55:14.714Z,47.00
2019-03-06T21:57:43.879Z,48.10
2019-03-06T22:00:20.774Z,47.70
2019-03-06T22:02:49.506Z,48.00
2019-03-06T22:05:18.469Z,48.50
2019-03-06T22:07:50.055Z,48.90
2019-03-06T22:10:17.946Z,48.40
2019-03-06T22:12:46.852Z,49.70
2019-03-06T22:15:19.730Z,48.00
2019-03-06T22:17:48.526Z,46.70
2019-03-06T22:20:17.297Z,47.00
2019-03-06T22:22:45.907Z,47.00
2019-03-06T22:25:18.278Z,47.50
2019-03-06T22:27:46.960Z,46.70
2019-03-06T22:30:22.995Z,46.60
2019-03-06T22:32:51.770Z,46.90
2019-03-06T22:35:20.489Z,46.00
2019-03-06T22:37:49.104Z,45.80
2019-03-06T22:40:21.236Z,46.00
2019-03-06T22:42:49.944Z,46.80
2019-03-06T22:45:19.750Z,47.10
2019-03-06T22:47:48.489Z,47.30
2019-03-06T22:50:18.534Z,47.40
2019-03-06T22:52:47.337Z,47.80
2019-03-06T22:55:17.574Z,48.00
2019-03-06T22:57:46.198Z,47.20
2019-03-06T23:00:30.068Z,47.80
2019-03-06T23:02:58.800Z,47.90
2019-03-06T23:05:29.317Z,48.20
2019-03-06T23:07:58.011Z,47.50
2019-03-06T23:10:26.806Z,48.00
2019-03-06T23:12:55.744Z,48.00
2019-03-06T23:15:24.326Z,48.40
2019-03-06T23:17:52.882Z,48.20
2019-03-06T23:20:21.464Z,48.70
2019-03-06T23:22:50.020Z,48.50
2019-03-06T23:25:18.616Z,48.90
2019-03-06T23:27:47.540Z,50.00
2019-03-06T23:30:17.071Z,50.30
2019-03-06T23:32:46.046Z,50.20
2019-03-06T23:35:14.618Z,50.10
2019-03-06T23:37:43.176Z,50.20
2019-03-06T23:40:12.390Z,50.50
2019-03-06T23:42:40.944Z,51.00
2019-03-06T23:45:11.268Z,50.20
2019-03-06T23:47:40.012Z,49.40
2019-03-06T23:50:12.725Z,49.30
2019-03-06T23:52:55.208Z,48.90
2019-03-06T23:55:23.953Z,48.40
2019-03-06T23:57:52.519Z,49.40
